Chertsey, United Kingdom
Current Conditions -  °F | °C
As of 9:20 AM on Tuesday 21 Oct 2014 (Local Time) from EGLL Reporting Station
Few Clouds Few Clouds  
Wind Chill: 57°   Ceiling: Unl
Heat Index: 57°   Visibility: 6mi
Dew Point: 52°   Wind: 21mph
Humidity: 82%   Direction: 260°W
Pressure: 29.56"   Gusts: NA
Location:  51.39°N, 0.51°W
Report Text: EGLL 210820Z 26018KT 9999 FEW035 14/11 Q1001
Loading
Personal Weather Stations






























Interactive Weather Map New forecast layout! Learn more

10-Day Weather Forecast

Advertisements
Track Severe Weather on mobile